Time;durP1;ratioP1;P1;durP2;ratioP2;P2;SDS_P1;SDS_P2;PMS_P1;PMS_P2;Temp;Humidity;BMP_temperature;BMP_pressure;BME280_temperature;BME280_humidity;BME280_pressure;Samples;Min_cycle;Max_cycle;Signal;HPM_P1;HPM_P2
2023/05/09 00:01:51;;;;;;;55.88;38.22;;;;;;;16.74;100.00;101658.88;5052531;28;20045;-66
2023/05/09 00:04:19;;;;;;;53.00;37.70;;;;;;;16.69;100.00;101654.28;5047937;28;20109;-66
2023/05/09 00:06:47;;;;;;;52.70;36.90;;;;;;;16.71;100.00;101652.03;5033332;28;20461;-66
2023/05/09 00:09:15;;;;;;;49.97;35.40;;;;;;;16.74;100.00;101653.38;5051662;28;20539;-66
2023/05/09 00:11:43;;;;;;;52.38;36.50;;;;;;;16.76;100.00;101651.16;5029708;28;20075;-68
2023/05/09 00:14:13;;;;;;;54.72;36.55;;;;;;;16.77;100.00;101639.88;5044439;28;20041;-66
2023/05/09 00:16:41;;;;;;;57.75;36.20;;;;;;;16.76;100.00;101641.00;5063790;28;20037;-67
2023/05/09 00:19:09;;;;;;;51.83;36.45;;;;;;;16.75;100.00;101638.53;5052940;28;20477;-66
2023/05/09 00:21:36;;;;;;;51.80;36.28;;;;;;;16.75;100.00;101639.34;5069228;28;20060;-66
2023/05/09 00:24:05;;;;;;;48.78;34.33;;;;;;;16.75;100.00;101633.03;5060474;28;20465;-68
2023/05/09 00:26:32;;;;;;;51.95;36.65;;;;;;;16.74;100.00;101634.13;5034630;28;20049;-66
2023/05/09 00:29:00;;;;;;;50.95;36.20;;;;;;;16.74;100.00;101634.13;5053281;28;20404;-66
2023/05/09 00:31:28;;;;;;;48.45;34.72;;;;;;;16.74;100.00;101643.22;5051684;28;20151;-66
2023/05/09 00:33:55;;;;;;;47.10;34.05;;;;;;;16.74;100.00;101631.38;5033645;28;20115;-65
2023/05/09 00:36:23;;;;;;;52.70;34.45;;;;;;;16.72;100.00;101630.84;5052919;28;20128;-66
2023/05/09 00:38:51;;;;;;;46.22;33.00;;;;;;;16.70;100.00;101622.06;5052776;28;20049;-67
2023/05/09 00:41:18;;;;;;;46.85;32.67;;;;;;;16.70;100.00;101630.31;5052578;28;20524;-66
2023/05/09 00:43:46;;;;;;;49.80;32.60;;;;;;;16.71;100.00;101626.44;5055739;28;20049;-65
2023/05/09 00:46:14;;;;;;;44.05;31.23;;;;;;;16.72;100.00;101617.09;5056508;28;20056;-67
2023/05/09 00:48:42;;;;;;;45.38;31.00;;;;;;;16.70;100.00;101603.63;5055407;28;20535;-66
2023/05/09 00:51:09;;;;;;;44.17;30.50;;;;;;;16.67;100.00;101600.63;5056716;28;20053;-65
2023/05/09 00:53:37;;;;;;;43.40;28.98;;;;;;;16.64;100.00;101603.94;5044011;28;20492;-66
2023/05/09 00:56:05;;;;;;;41.15;28.98;;;;;;;16.61;100.00;101603.41;5062116;28;20068;-66
2023/05/09 00:58:33;;;;;;;39.85;25.98;;;;;;;16.59;100.00;101597.38;5040419;28;20127;-67
2023/05/09 01:01:02;;;;;;;38.60;26.17;;;;;;;16.60;100.00;101598.22;5075086;28;20119;-67
2023/05/09 01:03:35;;;;;;;38.15;25.80;;;;;;;16.60;100.00;101593.53;5073267;28;20049;-67
2023/05/09 01:06:24;;;;;;;34.85;23.95;;;;;;;16.61;100.00;101584.16;5068264;28;20037;-66
2023/05/09 01:09:02;;;;;;;32.03;23.10;;;;;;;16.61;100.00;101588.84;5053668;28;20044;-66
2023/05/09 01:12:08;;;;;;;34.10;23.95;;;;;;;16.60;100.00;101590.78;5043493;28;20114;-66
2023/05/09 01:14:52;;;;;;;34.72;24.15;;;;;;;16.60;100.00;101592.72;5053368;28;20094;-67
2023/05/09 01:17:52;;;;;;;37.17;24.98;;;;;;;16.58;100.00;101579.25;5053805;28;20049;-66
2023/05/09 01:20:32;;;;;;;35.53;25.20;;;;;;;16.55;100.00;101579.84;5060270;28;20476;-66
2023/05/09 01:23:26;;;;;;;34.03;24.75;;;;;;;16.53;100.00;101571.03;5074876;28;20044;-65
2023/05/09 01:26:18;;;;;;;33.90;22.92;;;;;;;16.52;100.00;101569.38;5033342;28;20042;-66
2023/05/09 01:29:20;;;;;;;33.90;22.73;;;;;;;16.52;100.00;101558.38;5035588;28;20041;-66
2023/05/09 01:31:48;;;;;;;33.30;22.80;;;;;;;16.51;100.00;101554.00;5043597;28;20697;-67
2023/05/09 01:34:17;;;;;;;31.40;22.35;;;;;;;16.52;100.00;101552.06;5036491;28;20448;-67
2023/05/09 01:36:46;;;;;;;30.42;22.42;;;;;;;16.50;100.00;101546.03;5052869;28;20477;-67
2023/05/09 01:39:15;;;;;;;31.15;21.85;;;;;;;16.50;100.00;101543.28;5036086;28;20044;-67
2023/05/09 01:41:43;;;;;;;29.77;20.42;;;;;;;16.48;100.00;101540.84;5048402;28;20052;-67
2023/05/09 01:44:11;;;;;;;27.70;20.10;;;;;;;16.47;100.00;101541.94;5036635;28;20053;-67
2023/05/09 01:46:40;;;;;;;31.13;20.92;;;;;;;16.46;100.00;101548.56;5041739;28;20110;-67
2023/05/09 01:49:08;;;;;;;28.50;20.48;;;;;;;16.47;100.00;101544.69;5034523;28;20054;-67
2023/05/09 01:51:36;;;;;;;27.17;18.90;;;;;;;16.47;100.00;101536.44;5017782;28;20053;-66
2023/05/09 01:54:06;;;;;;;28.50;20.25;;;;;;;16.47;100.00;101538.38;5017426;28;20076;-66
2023/05/09 01:56:35;;;;;;;27.98;19.63;;;;;;;16.46;100.00;101540.31;5051935;28;20044;-66
2023/05/09 01:59:03;;;;;;;27.30;19.27;;;;;;;16.45;100.00;101535.91;5037852;28;20466;-66
2023/05/09 02:01:31;;;;;;;30.13;19.75;;;;;;;16.45;100.00;101535.91;5037929;28;20420;-65
2023/05/09 02:03:59;;;;;;;27.23;18.95;;;;;;;16.45;100.00;101527.66;5037291;28;20123;-66
2023/05/09 02:06:28;;;;;;;25.90;18.75;;;;;;;16.43;100.00;101529.03;5054113;28;20041;-66
2023/05/09 02:08:57;;;;;;;26.77;19.00;;;;;;;16.42;100.00;101528.22;5033823;28;20506;-64
2023/05/09 02:11:25;;;;;;;26.90;18.83;;;;;;;16.41;100.00;101526.59;5055334;28;20048;-64
2023/05/09 02:13:53;;;;;;;30.38;18.58;;;;;;;16.39;100.00;101528.81;5073474;28;20076;-63
2023/05/09 02:16:21;;;;;;;25.80;18.83;;;;;;;16.36;100.00;101532.16;5049538;28;20120;-65
2023/05/09 02:18:49;;;;;;;25.10;18.42;;;;;;;16.35;100.00;101530.50;5067403;28;20059;-60
2023/05/09 02:21:16;;;;;;;25.83;18.35;;;;;;;16.33;100.00;101522.56;5057227;28;20049;-62
2023/05/09 02:23:45;;;;;;;30.13;17.95;;;;;;;16.31;100.00;101518.47;5057110;28;20053;-63
2023/05/09 02:26:14;;;;;;;30.70;19.80;;;;;;;16.30;100.00;101522.31;5077440;28;20049;-66
2023/05/09 02:28:43;;;;;;;28.20;19.02;;;;;;;16.29;100.00;101513.25;5035104;28;20450;-66
2023/05/09 02:31:12;;;;;;;28.25;18.15;;;;;;;16.30;100.00;101519.56;5017042;28;20490;-66
2023/05/09 02:33:41;;;;;;;28.67;19.45;;;;;;;16.29;100.00;101510.47;5016887;28;20045;-66
2023/05/09 02:36:09;;;;;;;27.48;19.27;;;;;;;16.29;100.00;101516.00;5050392;28;20124;-66
2023/05/09 02:38:37;;;;;;;27.15;19.50;;;;;;;16.29;100.00;101516.00;5021641;28;20049;-66
2023/05/09 02:41:05;;;;;;;28.17;19.50;;;;;;;16.28;100.00;101519.00;5038045;28;20051;-66
2023/05/09 02:43:32;;;;;;;26.83;18.60;;;;;;;16.26;100.00;101518.47;5054729;28;20080;-66
2023/05/09 02:46:00;;;;;;;25.85;18.30;;;;;;;16.25;100.00;101520.41;5053360;28;20052;-66
2023/05/09 02:48:28;;;;;;;27.58;18.73;;;;;;;16.22;100.00;101511.94;5052485;28;20659;-66
2023/05/09 02:50:57;;;;;;;26.25;17.98;;;;;;;16.21;100.00;101524.03;5032486;28;20081;-67
2023/05/09 02:53:24;;;;;;;25.13;17.83;;;;;;;16.22;100.00;101517.44;5033246;28;20049;-66
2023/05/09 02:55:52;;;;;;;28.15;18.48;;;;;;;16.23;100.00;101516.31;5029509;28;20128;-66
2023/05/09 02:58:20;;;;;;;25.50;17.88;;;;;;;16.22;100.00;101515.50;5036758;28;20045;-66
2023/05/09 03:00:48;;;;;;;24.30;17.98;;;;;;;16.22;100.00;101510.00;5051554;28;20099;-66
2023/05/09 03:03:16;;;;;;;26.00;18.23;;;;;;;16.21;100.00;101502.88;5051673;28;20505;-67
2023/05/09 03:05:45;;;;;;;22.02;16.65;;;;;;;16.20;100.00;101495.72;5033472;28;20045;-67
2023/05/09 03:08:13;;;;;;;22.67;16.33;;;;;;;16.16;100.00;101494.66;5032426;28;20448;-67
2023/05/09 03:10:40;;;;;;;26.80;18.60;;;;;;;16.12;100.00;101504.59;5031347;28;20049;-67
2023/05/09 03:13:09;;;;;;;24.77;18.05;;;;;;;16.08;100.00;101490.59;5035991;28;20044;-65
2023/05/09 03:15:37;;;;;;;25.30;17.58;;;;;;;16.06;100.00;101486.50;5066001;28;20059;-66
2023/05/09 03:18:05;;;;;;;27.23;18.25;;;;;;;16.04;100.00;101484.03;5073017;28;20053;-66
2023/05/09 03:20:33;;;;;;;24.40;17.02;;;;;;;16.04;100.00;101484.03;5055784;28;20049;-68
2023/05/09 03:23:01;;;;;;;26.45;17.88;;;;;;;16.01;100.00;101481.88;5046553;28;20052;-68
2023/05/09 03:25:29;;;;;;;24.58;17.10;;;;;;;15.98;100.00;101476.94;5052216;28;20048;-66
2023/05/09 03:27:57;;;;;;;25.90;17.30;;;;;;;15.98;100.00;101465.97;5074112;28;20051;-66
2023/05/09 03:30:26;;;;;;;22.45;16.27;;;;;;;16.00;100.00;101469.25;5063380;28;20048;-66
2023/05/09 03:32:55;;;;;;;24.95;17.65;;;;;;;16.01;100.00;101468.13;5051065;28;20128;-67
2023/05/09 03:35:23;;;;;;;23.77;16.95;;;;;;;16.02;100.00;101471.69;5016865;28;20049;-67
2023/05/09 03:37:50;;;;;;;25.05;17.42;;;;;;;16.01;100.00;101470.06;5038862;28;20072;-66
2023/05/09 03:40:18;;;;;;;23.83;16.58;;;;;;;16.01;100.00;101462.63;5051138;28;20083;-66
2023/05/09 03:42:52;;;;;;;24.08;17.33;;;;;;;16.02;100.00;101463.44;5030771;28;20560;-66
2023/05/09 03:45:20;;;;;;;23.27;17.25;;;;;;;16.02;100.00;101458.78;5052283;28;20044;-66
2023/05/09 03:47:47;;;;;;;24.90;18.02;;;;;;;16.01;100.00;101459.88;5072287;28;20127;-66
2023/05/09 03:50:15;;;;;;;25.85;17.65;;;;;;;15.99;100.00;101462.09;5054906;28;20071;-66
2023/05/09 03:52:44;;;;;;;26.55;17.27;;;;;;;15.98;100.00;101460.47;5050333;28;20049;-67
2023/05/09 03:55:15;;;;;;;27.38;17.60;;;;;;;15.97;100.00;101459.66;5066063;28;20129;-67
2023/05/09 03:57:43;;;;;;;26.00;17.08;;;;;;;15.95;100.00;101447.31;5053913;28;20095;-67
2023/05/09 04:00:12;;;;;;;26.63;17.95;;;;;;;15.94;100.00;101448.41;5071612;28;20055;-66
2023/05/09 04:02:51;;;;;;;24.98;17.27;;;;;;;15.92;100.00;101439.63;5046569;28;20056;-67
2023/05/09 04:05:29;;;;;;;24.67;16.70;;;;;;;15.92;100.00;101442.38;5053611;28;20052;-67
2023/05/09 04:07:58;;;;;;;24.92;16.38;;;;;;;15.91;100.00;101443.50;5037735;28;20037;-66
2023/05/09 04:10:25;;;;;;;23.88;17.65;;;;;;;15.90;100.00;101436.38;5070385;28;20052;-66
2023/05/09 04:12:54;;;;;;;23.05;16.27;;;;;;;15.86;100.00;101440.78;5030847;28;20529;-66
2023/05/09 04:15:22;;;;;;;26.50;17.42;;;;;;;15.86;100.00;101440.78;5068132;28;20396;-65
2023/05/09 04:17:50;;;;;;;23.30;16.42;;;;;;;15.86;100.00;101440.78;5044421;28;20056;-65
2023/05/09 04:20:18;;;;;;;26.98;17.08;;;;;;;15.85;100.00;101428.13;5076666;28;20078;-66
2023/05/09 04:22:46;;;;;;;24.45;16.45;;;;;;;15.85;100.00;101425.38;5053961;28;20041;-67
2023/05/09 04:25:15;;;;;;;24.92;15.55;;;;;;;15.85;100.00;101428.13;5038228;28;20052;-66
2023/05/09 04:27:45;;;;;;;22.38;15.70;;;;;;;15.84;100.00;101415.53;5055649;28;20083;-66
2023/05/09 04:30:13;;;;;;;23.70;15.80;;;;;;;15.81;100.00;101413.34;5039684;28;20136;-66
2023/05/09 04:32:44;;;;;;;21.48;16.05;;;;;;;15.79;100.00;101408.13;5054035;28;20041;-66
2023/05/09 04:35:13;;;;;;;24.17;16.17;;;;;;;15.76;100.00;101412.28;5036425;28;20037;-66
2023/05/09 04:37:46;;;;;;;22.17;15.88;;;;;;;15.73;100.00;101410.13;5034032;28;20045;-67
2023/05/09 04:40:14;;;;;;;24.52;16.98;;;;;;;15.72;100.00;101415.91;5017937;28;20081;-66
2023/05/09 04:42:52;;;;;;;23.67;15.48;;;;;;;15.71;100.00;101417.03;5056670;28;20047;-66
2023/05/09 04:45:23;;;;;;;21.10;15.25;;;;;;;15.74;100.00;101420.00;5055059;28;20235;-67
2023/05/09 04:47:51;;;;;;;19.98;15.13;;;;;;;15.76;100.00;101426.03;5055050;28;20045;-67
2023/05/09 04:50:18;;;;;;;25.90;17.73;;;;;;;15.74;100.00;101416.44;5055597;28;20485;-67
2023/05/09 04:52:46;;;;;;;24.48;17.20;;;;;;;15.67;100.00;101413.16;5040726;28;20048;-67
2023/05/09 04:55:15;;;;;;;26.35;16.80;;;;;;;15.64;100.00;101406.31;5030359;28;20068;-68
2023/05/09 04:57:46;;;;;;;23.58;16.88;;;;;;;15.63;100.00;101404.66;5017002;28;20076;-66
2023/05/09 05:00:16;;;;;;;22.08;16.30;;;;;;;15.61;100.00;101406.06;5036109;28;20054;-66
2023/05/09 05:02:46;;;;;;;21.85;15.52;;;;;;;15.59;100.00;101397.31;5050254;28;20045;-67
2023/05/09 05:05:18;;;;;;;22.35;15.48;;;;;;;15.58;100.00;101396.47;5059710;28;20049;-67
2023/05/09 05:07:53;;;;;;;22.58;14.40;;;;;;;15.58;100.00;101395.66;5055495;28;20049;-66
2023/05/09 05:10:24;;;;;;;18.35;12.57;;;;;;;15.60;100.00;101393.44;5039127;28;20036;-67
2023/05/09 05:13:00;;;;;;;19.80;13.32;;;;;;;15.64;100.00;101389.84;5054447;28;20091;-66
2023/05/09 05:15:33;;;;;;;21.27;13.37;;;;;;;15.69;100.00;101383.47;4521074;28;10001803;-67
2023/05/09 05:18:01;;;;;;;17.92;11.73;;;;;;;15.71;100.00;101378.56;5070873;28;20102;-67
2023/05/09 05:20:33;;;;;;;19.67;13.07;;;;;;;15.70;100.00;101368.66;5070268;28;20056;-67
2023/05/09 05:23:01;;;;;;;19.50;12.00;;;;;;;15.71;100.00;101373.88;5053188;28;20105;-66
2023/05/09 05:25:30;;;;;;;19.52;12.15;;;;;;;15.70;100.00;101363.97;5068251;28;20064;-67
2023/05/09 05:27:59;;;;;;;16.33;11.52;;;;;;;15.71;100.00;101360.13;5029528;28;20076;-67
2023/05/09 05:30:27;;;;;;;18.27;12.75;;;;;;;15.75;100.00;101346.63;5032613;28;20049;-65
2023/05/09 05:32:56;;;;;;;17.17;12.20;;;;;;;15.74;100.00;101343.06;5040035;28;20040;-68
2023/05/09 05:35:27;;;;;;;15.82;11.77;;;;;;;15.74;100.00;101348.56;5050413;28;20102;-67
2023/05/09 05:37:55;;;;;;;16.73;11.50;;;;;;;15.75;100.00;101343.88;5016254;28;20118;-66
2023/05/09 05:40:23;;;;;;;19.85;12.10;;;;;;;15.74;100.00;101340.31;5029652;28;20057;-66
2023/05/09 05:42:53;;;;;;;18.38;11.80;;;;;;;15.79;100.00;101341.38;5057554;28;20052;-66
2023/05/09 05:45:21;;;;;;;17.30;11.75;;;;;;;15.81;100.00;101345.47;5033674;28;20481;-66
2023/05/09 05:47:53;;;;;;;15.63;11.50;;;;;;;15.80;100.00;101345.75;5050116;28;20099;-66
2023/05/09 05:50:22;;;;;;;15.40;11.00;;;;;;;15.81;100.00;101344.66;5051373;28;20409;-66
2023/05/09 05:52:49;;;;;;;16.33;10.93;;;;;;;15.85;100.00;101340.22;5051691;28;20466;-67
2023/05/09 05:55:19;;;;;;;16.88;11.65;;;;;;;15.88;100.00;101339.66;5051282;28;20057;-67
2023/05/09 05:57:49;;;;;;;19.27;12.20;;;;;;;15.86;100.00;101331.69;5029895;28;20601;-67
2023/05/09 06:00:17;;;;;;;17.80;11.38;;;;;;;15.85;100.00;101331.97;5030351;28;20062;-67
2023/05/09 06:02:50;;;;;;;16.05;11.02;;;;;;;15.88;100.00;101328.66;5059664;28;20053;-67
2023/05/09 06:05:40;;;;;;;15.38;11.70;;;;;;;15.94;100.00;101322.78;5054220;28;20061;-66
2023/05/09 06:08:07;;;;;;;16.63;11.80;;;;;;;15.95;100.00;101318.94;5051075;28;20045;-66
2023/05/09 06:10:35;;;;;;;17.23;11.60;;;;;;;15.97;100.00;101327.72;5033614;28;20133;-64
2023/05/09 06:13:03;;;;;;;19.67;11.32;;;;;;;16.00;100.00;101318.06;5054008;28;20037;-65
2023/05/09 06:15:31;;;;;;;19.42;12.15;;;;;;;16.02;100.00;101304.84;5061894;28;20060;-62
2023/05/09 06:17:59;;;;;;;17.40;12.30;;;;;;;16.03;100.00;101314.72;5068449;28;20117;-63
2023/05/09 06:20:27;;;;;;;16.52;12.43;;;;;;;16.07;100.00;101310.28;5065324;28;20056;-68
2023/05/09 06:22:55;;;;;;;16.08;11.40;;;;;;;16.10;100.00;101303.38;5053471;28;20063;-66
2023/05/09 06:25:22;;;;;;;17.52;10.20;;;;;;;16.13;100.00;101298.09;4705093;28;9999791;-67
2023/05/09 06:27:50;;;;;;;16.40;10.90;;;;;;;16.17;100.00;101301.91;5071597;28;20053;-66
2023/05/09 06:30:18;;;;;;;16.60;11.48;;;;;;;16.21;100.00;101293.06;5072191;28;20131;-66
2023/05/09 06:32:57;;;;;;;18.98;12.82;;;;;;;16.16;100.00;101296.69;5071705;28;20046;-67
2023/05/09 06:35:24;;;;;;;16.60;12.15;;;;;;;16.13;100.00;101295.34;5073674;28;20075;-66
2023/05/09 06:37:52;;;;;;;16.05;11.18;;;;;;;16.14;100.00;101294.25;5075086;28;20123;-66
2023/05/09 06:40:20;;;;;;;14.82;9.82;;;;;;;16.18;100.00;101298.03;5074536;28;20519;-66
2023/05/09 06:42:48;;;;;;;18.95;11.77;;;;;;;16.19;100.00;101296.94;5058457;28;20119;-66
2023/05/09 06:45:18;;;;;;;18.75;12.48;;;;;;;16.19;100.00;101288.69;5044191;28;20042;-66
2023/05/09 06:47:46;;;;;;;19.83;13.80;;;;;;;16.14;100.00;101286.00;5056996;28;20083;-66
2023/05/09 06:50:17;;;;;;;19.02;13.18;;;;;;;16.12;100.00;101285.47;5074104;28;20374;-65
2023/05/09 06:52:45;;;;;;;18.85;12.38;;;;;;;16.11;100.00;101272.03;5027863;28;20085;-66
2023/05/09 06:55:12;;;;;;;15.93;11.52;;;;;;;16.13;100.00;101270.63;5033788;28;20099;-66
2023/05/09 06:57:40;;;;;;;19.73;12.68;;;;;;;16.15;100.00;101271.13;5033729;28;20049;-66
2023/05/09 07:00:09;;;;;;;15.68;11.27;;;;;;;16.21;100.00;101271.06;5033250;28;20049;-67
2023/05/09 07:02:40;;;;;;;17.13;11.68;;;;;;;16.23;100.00;101274.34;5051609;28;20041;-68
2023/05/09 07:05:09;;;;;;;15.70;9.95;;;;;;;16.24;100.00;101265.00;5045908;28;20048;-67
2023/05/09 07:07:37;;;;;;;17.98;11.85;;;;;;;16.25;100.00;101261.94;5017013;28;20136;-66
2023/05/09 07:10:05;;;;;;;18.67;13.48;;;;;;;16.27;100.00;101267.16;5049975;28;20470;-66
2023/05/09 07:12:39;;;;;;;16.58;11.27;;;;;;;16.29;100.00;101259.44;5065095;28;20044;-65
2023/05/09 07:15:07;;;;;;;17.13;12.50;;;;;;;16.31;100.00;101254.47;5053677;28;20048;-66
2023/05/09 07:17:35;;;;;;;15.85;11.68;;;;;;;16.33;100.00;101246.72;5054417;28;20053;-66
2023/05/09 07:20:03;;;;;;;22.63;12.65;;;;;;;16.35;100.00;101261.78;5054320;28;20045;-67
2023/05/09 07:22:31;;;;;;;16.27;10.38;;;;;;;16.39;100.00;101248.28;5068204;28;20096;-66
2023/05/09 07:25:02;;;;;;;18.10;10.95;;;;;;;16.42;100.00;101239.44;5073988;28;20045;-66
2023/05/09 07:27:32;;;;;;;13.82;8.98;;;;;;;16.46;100.00;101237.72;5054039;28;20051;-66
2023/05/09 07:30:00;;;;;;;17.80;10.60;;;;;;;16.48;100.00;101237.44;5054091;28;20053;-65
2023/05/09 07:32:28;;;;;;;19.40;12.35;;;;;;;16.50;100.00;101237.94;5050767;28;20493;-66
2023/05/09 07:34:56;;;;;;;14.48;9.80;;;;;;;16.51;100.00;101234.91;5052664;28;20756;-67
2023/05/09 07:37:24;;;;;;;16.60;9.32;;;;;;;16.51;100.00;101232.16;5053257;28;20048;-66
2023/05/09 07:39:52;;;;;;;15.85;9.80;;;;;;;16.52;100.00;101236.53;5031932;28;20049;-66
2023/05/09 07:42:20;;;;;;;16.75;9.93;;;;;;;16.51;100.00;101231.34;5067430;28;20144;-66
2023/05/09 07:44:48;;;;;;;14.18;9.35;;;;;;;16.50;100.00;101238.78;5053693;28;20037;-65
2023/05/09 07:47:16;;;;;;;20.27;9.65;;;;;;;16.55;100.00;101233.19;5036280;28;20045;-64
2023/05/09 07:49:45;;;;;;;19.95;8.45;;;;;;;16.54;100.00;101220.53;5016205;28;20041;-65
2023/05/09 07:52:16;;;;;;;16.33;9.65;;;;;;;16.54;100.00;101226.03;5032315;28;20054;-66
2023/05/09 07:54:44;;;;;;;14.43;9.18;;;;;;;16.51;100.00;101221.16;5043343;28;20045;-66
2023/05/09 07:57:12;;;;;;;14.68;8.75;;;;;;;16.52;100.00;101224.72;5053381;28;20049;-66
2023/05/09 07:59:41;;;;;;;14.80;8.07;;;;;;;16.53;100.00;101218.09;5052484;28;20099;-66
2023/05/09 08:02:08;;;;;;;14.52;7.93;;;;;;;16.55;100.00;101213.94;5032667;28;20073;-66
2023/05/09 08:04:37;;;;;;;14.45;7.35;;;;;;;16.55;100.00;101219.44;5043119;28;20127;-68
2023/05/09 08:07:06;;;;;;;16.42;9.32;;;;;;;16.57;100.00;101214.47;5051311;28;20041;-67
2023/05/09 08:09:34;;;;;;;14.60;8.00;;;;;;;16.55;100.00;101202.94;5053467;28;20055;-67
2023/05/09 08:12:02;;;;;;;13.45;8.80;;;;;;;16.51;100.00;101203.84;5068500;28;20131;-67
2023/05/09 08:14:30;;;;;;;12.65;8.32;;;;;;;16.47;100.00;101203.59;5073332;28;20131;-66
2023/05/09 08:16:57;;;;;;;13.00;7.72;;;;;;;16.46;100.00;101199.22;5061223;28;20045;-67
2023/05/09 08:19:25;;;;;;;16.27;8.30;;;;;;;16.45;100.00;101199.50;5050434;28;20049;-67
2023/05/09 08:21:53;;;;;;;15.27;8.00;;;;;;;16.45;100.00;101194.00;5059823;28;20096;-67
2023/05/09 08:24:20;;;;;;;14.65;8.20;;;;;;;16.39;100.00;101193.28;5051818;28;20045;-66
2023/05/09 08:26:54;;;;;;;13.27;7.22;;;;;;;16.38;100.00;101188.91;5052868;28;20116;-66
2023/05/09 08:29:21;;;;;;;13.30;8.52;;;;;;;16.39;100.00;101182.28;5051570;28;20057;-65
2023/05/09 08:31:50;;;;;;;14.80;8.30;;;;;;;16.40;100.00;101175.66;5054093;28;20527;-67
2023/05/09 08:34:19;;;;;;;13.25;7.20;;;;;;;16.40;100.00;101176.50;5051755;28;20055;-67
2023/05/09 08:36:47;;;;;;;10.85;6.35;;;;;;;16.41;100.00;101180.06;5053053;28;20048;-67
2023/05/09 08:39:14;;;;;;;13.45;6.85;;;;;;;16.40;100.00;101181.16;5045863;28;20042;-67
2023/05/09 08:41:42;;;;;;;9.27;5.82;;;;;;;16.41;100.00;101177.31;5031947;28;20050;-66
2023/05/09 08:44:13;;;;;;;8.77;5.35;;;;;;;16.47;100.00;101173.34;5033460;28;20068;-65
2023/05/09 08:46:43;;;;;;;10.50;5.70;;;;;;;16.52;100.00;101167.75;5031992;28;20041;-65
2023/05/09 08:49:11;;;;;;;12.55;6.30;;;;;;;16.56;100.00;101168.78;5033033;28;20053;-66
2023/05/09 08:51:39;;;;;;;10.60;5.80;;;;;;;16.60;100.00;101169.84;5032390;28;20045;-66
2023/05/09 08:54:07;;;;;;;9.90;6.18;;;;;;;16.60;100.00;101169.84;5032332;28;20057;-66
2023/05/09 08:56:38;;;;;;;9.20;5.57;;;;;;;16.60;100.00;101175.34;5016036;28;20409;-66
2023/05/09 08:59:06;;;;;;;12.10;5.82;;;;;;;16.62;100.00;101166.81;5031200;28;20049;-67
2023/05/09 09:01:34;;;;;;;13.05;6.95;;;;;;;16.63;100.00;101176.69;5014475;28;20063;-67
2023/05/09 09:04:07;;;;;;;10.60;6.05;;;;;;;16.57;100.00;101164.94;5030816;28;20095;-65
2023/05/09 09:06:35;;;;;;;10.65;5.50;;;;;;;16.54;100.00;101164.72;5033585;28;20072;-65
2023/05/09 09:09:05;;;;;;;10.07;5.35;;;;;;;16.47;100.00;101165.09;5044195;28;20049;-68
2023/05/09 09:11:36;;;;;;;8.93;5.13;;;;;;;16.49;100.00;101162.06;5052515;28;20046;-66
2023/05/09 09:14:19;;;;;;;9.57;5.80;;;;;;;16.51;100.00;101159.81;5045309;28;20045;-66
2023/05/09 09:16:48;;;;;;;9.98;5.60;;;;;;;16.51;100.00;101155.13;5057530;28;20044;-66
2023/05/09 09:19:17;;;;;;;10.95;5.68;;;;;;;16.50;100.00;101153.50;5061732;28;20061;-65
2023/05/09 09:21:46;;;;;;;12.00;5.60;;;;;;;16.48;100.00;101150.25;5049982;28;20068;-66
2023/05/09 09:24:14;;;;;;;11.00;6.22;;;;;;;16.50;100.00;101148.00;5045877;28;20068;-66
2023/05/09 09:26:48;;;;;;;10.55;5.72;;;;;;;16.50;100.00;101148.00;5043438;28;20378;-66
2023/05/09 09:29:17;;;;;;;12.32;6.10;;;;;;;16.53;100.00;101141.91;5056593;28;20117;-65
2023/05/09 09:31:46;;;;;;;10.88;6.05;;;;;;;16.54;100.00;101138.00;5056522;28;20128;-65
2023/05/09 09:34:21;;;;;;;11.20;7.10;;;;;;;16.54;100.00;101140.75;5055863;28;20091;-65
2023/05/09 09:36:49;;;;;;;11.50;6.60;;;;;;;16.54;100.00;101137.22;5059644;28;20128;-66
2023/05/09 09:39:17;;;;;;;9.63;5.82;;;;;;;16.52;100.00;101140.25;5035997;28;20421;-65
2023/05/09 09:41:45;;;;;;;9.48;6.38;;;;;;;16.54;100.00;101137.22;5019074;28;20401;-66
2023/05/09 09:44:17;;;;;;;13.07;7.07;;;;;;;16.51;100.00;101127.63;5036459;28;20095;-66
2023/05/09 09:46:50;;;;;;;11.00;6.30;;;;;;;16.50;100.00;101142.50;5028861;28;20052;-66
2023/05/09 09:49:20;;;;;;;10.13;6.30;;;;;;;16.48;100.00;101132.91;5055492;28;20107;-64
2023/05/09 09:51:52;;;;;;;10.95;6.80;;;;;;;16.44;100.00;101123.63;5051370;28;20446;-66
2023/05/09 09:54:20;;;;;;;11.85;6.70;;;;;;;16.35;100.00;101134.47;5036734;28;20107;-63
2023/05/09 09:56:50;;;;;;;10.18;6.20;;;;;;;16.33;100.00;101128.47;5049403;28;20076;-63
2023/05/09 09:59:23;;;;;;;10.48;6.57;;;;;;;16.28;100.00;101125.78;5049656;28;20110;-64
2023/05/09 10:02:05;;;;;;;10.32;5.97;;;;;;;16.27;100.00;101132.41;5076452;28;20044;-63
2023/05/09 10:04:37;;;;;;;9.27;4.95;;;;;;;16.30;100.00;101126.31;5067869;28;20440;-65
2023/05/09 10:07:06;;;;;;;7.68;4.78;;;;;;;16.33;100.00;101125.72;5056653;28;20056;-65
2023/05/09 10:09:36;;;;;;;10.13;4.85;;;;;;;16.36;100.00;101125.13;5061613;28;20079;-62
2023/05/09 10:12:05;;;;;;;8.05;4.50;;;;;;;16.38;100.00;101122.91;5065960;28;20075;-63
2023/05/09 10:14:35;;;;;;;6.32;3.33;;;;;;;16.25;100.00;101118.16;5045324;28;20523;-66
2023/05/09 10:17:04;;;;;;;6.55;3.97;;;;;;;16.19;100.00;101118.22;5049727;28;20045;-66
2023/05/09 10:19:32;;;;;;;4.63;3.03;;;;;;;16.12;100.00;101115.03;5042701;28;20080;-66
2023/05/09 10:22:05;;;;;;;4.93;2.67;;;;;;;16.07;100.00;101115.13;5037044;28;20547;-66
2023/05/09 10:24:47;;;;;;;5.00;3.10;;;;;;;16.11;100.00;101110.66;5045195;28;20049;-66
2023/05/09 10:27:18;;;;;;;6.32;3.25;;;;;;;16.17;100.00;101109.47;5064806;28;20416;-65
2023/05/09 10:29:50;;;;;;;8.65;3.40;;;;;;;16.23;100.00;101114.88;5052225;28;20045;-65
2023/05/09 10:32:26;;;;;;;6.28;3.10;;;;;;;16.29;100.00;101099.94;5051773;28;20051;-64
2023/05/09 10:34:57;;;;;;;6.97;3.88;;;;;;;16.23;100.00;101109.38;4329501;28;10000725;-66
2023/05/09 10:37:25;;;;;;;6.15;3.70;;;;;;;16.15;100.00;101097.94;5076037;28;20047;-65
2023/05/09 10:39:54;;;;;;;8.90;4.03;;;;;;;16.13;100.00;101100.16;5069441;28;20045;-65
2023/05/09 10:42:25;;;;;;;9.35;3.88;;;;;;;16.13;100.00;101102.09;5054085;28;20044;-65
2023/05/09 10:45:01;;;;;;;6.50;4.07;;;;;;;16.12;100.00;101095.00;5060470;28;20098;-65
2023/05/09 10:47:32;;;;;;;8.68;4.20;;;;;;;16.09;100.00;101085.41;5062413;28;20049;-66
2023/05/09 10:50:00;;;;;;;6.88;4.00;;;;;;;16.04;100.00;101085.47;5051936;28;20041;-65
2023/05/09 10:53:07;;;;;;;8.65;3.92;;;;;;;15.98;100.00;101075.69;5030943;28;20045;-66
2023/05/09 10:55:57;;;;;;;8.38;3.83;;;;;;;15.97;100.00;101077.63;5052888;28;20036;-65
2023/05/09 10:58:26;;;;;;;7.45;4.43;;;;;;;15.96;100.00;101078.72;5059931;28;20040;-65
2023/05/09 11:00:58;;;;;;;8.35;4.32;;;;;;;15.97;100.00;101074.06;5045712;28;20042;-65
2023/05/09 11:03:27;;;;;;;5.65;3.85;;;;;;;15.95;100.00;101071.59;5017205;28;20490;-65
2023/05/09 11:05:56;;;;;;;12.00;5.18;;;;;;;16.00;100.00;101065.22;5045459;28;20045;-65
2023/05/09 11:08:25;;;;;;;11.48;6.50;;;;;;;16.02;100.00;101065.72;5052734;28;20056;-65
2023/05/09 11:10:59;;;;;;;8.82;4.82;;;;;;;16.00;100.00;101054.22;5054542;28;20136;-64
2023/05/09 11:13:30;;;;;;;10.38;4.45;;;;;;;15.96;100.00;101056.72;5054560;28;20048;-64
2023/05/09 11:16:01;;;;;;;14.23;6.03;;;;;;;15.98;100.00;101059.19;5044723;28;20057;-65
2023/05/09 11:18:31;;;;;;;9.55;4.25;;;;;;;15.98;100.00;101059.19;5034649;28;20405;-65